Marion, Ohio
Current Conditions -  °F | °C
As of 4:53 AM on Wednesday 26 Nov 2014 (Local Time) from KMNN Reporting Station
Overcast Overcast  
Wind Chill: 22°   Ceiling: 1700
Heat Index: 29°   Visibility: 10mi
Dew Point: 23°   Wind: 7mph
Humidity: 78%   Direction: 30°NNE
Pressure: 30.12"   Gusts: NA
Location:  40.58°N, 83.13°W
Report Text: KMNN 260953Z AUTO 03006KT 10SM OVC017 M02/M05 A3012 RMK AO2 PRESFR SLP212 T10171050 TSNO
Loading
Personal Weather Stations






























Interactive Weather Map New forecast layout! Learn more

10-Day Weather Forecast

Advertisements
Track Severe Weather on mobile